Time;durP1;ratioP1;P1;durP2;ratioP2;P2;SDS_P1;SDS_P2;PMS_P1;PMS_P2;Temp;Humidity;BMP_temperature;BMP_pressure;BME280_temperature;BME280_humidity;BME280_pressure;Samples;Min_cycle;Max_cycle;Signal;HPM_P1;HPM_P2
2022/07/21 00:02:19;;;;;;;1.73;1.38;;;;;;;16.29;59.03;96612.88;5117501;28;20439;-68
2022/07/21 00:04:46;;;;;;;1.90;1.80;;;;;;;16.28;58.95;96616.47;5117518;28;20402;-69
2022/07/21 00:07:13;;;;;;;3.17;1.95;;;;;;;16.26;59.14;96620.13;5117396;28;20051;-68
2022/07/21 00:09:42;;;;;;;3.65;1.67;;;;;;;16.25;59.24;96611.34;5117312;28;20043;-68
2022/07/21 00:12:09;;;;;;;4.45;1.80;;;;;;;16.24;59.45;96616.72;5117374;28;20051;-69
2022/07/21 00:14:36;;;;;;;1.90;1.60;;;;;;;16.18;59.75;96610.03;5117245;28;20112;-69
2022/07/21 00:17:04;;;;;;;2.33;1.70;;;;;;;16.16;59.47;96611.91;5117525;28;20071;-69
2022/07/21 00:19:31;;;;;;;5.40;1.60;;;;;;;16.13;59.64;96614.72;5117228;28;20055;-67
2022/07/21 00:21:58;;;;;;;2.15;1.45;;;;;;;16.12;59.82;96615.66;5117270;28;20071;-69
2022/07/21 00:24:25;;;;;;;2.13;1.40;;;;;;;16.07;59.95;96610.66;5117004;28;20054;-68
2022/07/21 00:26:53;;;;;;;1.67;1.48;;;;;;;16.02;59.93;96616.22;5116956;28;20054;-68
2022/07/21 00:29:20;;;;;;;1.67;1.58;;;;;;;16.02;60.12;96613.56;5117031;28;20087;-70
2022/07/21 00:31:47;;;;;;;4.05;1.65;;;;;;;16.00;60.22;96609.34;5117033;28;20489;-69
2022/07/21 00:34:15;;;;;;;2.00;1.58;;;;;;;15.97;60.17;96615.66;5116877;28;20051;-68
2022/07/21 00:36:42;;;;;;;2.28;2.00;;;;;;;15.94;60.30;96607.03;5116978;28;20066;-68
2022/07/21 00:39:09;;;;;;;2.78;1.40;;;;;;;15.92;60.27;96609.75;5116733;28;20075;-69
2022/07/21 00:41:36;;;;;;;2.97;1.60;;;;;;;15.88;60.47;96613.50;5116757;28;20043;-68
2022/07/21 00:44:04;;;;;;;2.05;1.75;;;;;;;15.84;60.57;96609.34;5116854;28;20126;-69
2022/07/21 00:46:32;;;;;;;5.85;1.65;;;;;;;15.82;60.63;96604.16;5116650;28;20044;-70
2022/07/21 00:48:59;;;;;;;4.20;1.45;;;;;;;15.80;60.54;96598.13;5116657;28;20449;-68
2022/07/21 00:51:26;;;;;;;5.13;1.90;;;;;;;15.77;60.51;96601.78;5116581;28;20485;-69
2022/07/21 00:53:53;;;;;;;1.45;1.35;;;;;;;15.77;60.59;96595.66;5116610;28;20461;-67
2022/07/21 00:56:22;;;;;;;4.13;1.77;;;;;;;15.72;60.66;96590.69;5115975;28;20051;-69
2022/07/21 00:58:49;;;;;;;1.88;1.40;;;;;;;15.76;60.50;96596.63;5116465;28;20097;-68
2022/07/21 01:01:18;;;;;;;2.35;1.75;;;;;;;15.74;61.02;96601.16;5116204;28;20054;-68
2022/07/21 01:03:45;;;;;;;2.88;1.88;;;;;;;15.68;60.98;96598.84;5116270;28;20043;-69
2022/07/21 01:06:12;;;;;;;3.65;1.92;;;;;;;15.59;61.32;96594.97;5116231;28;20131;-67
2022/07/21 01:08:39;;;;;;;2.10;1.73;;;;;;;15.52;60.98;96590.03;5116282;28;20126;-68
2022/07/21 01:11:07;;;;;;;2.45;1.73;;;;;;;15.47;61.30;96592.06;5116185;28;20135;-68
2022/07/21 01:13:41;;;;;;;1.85;1.50;;;;;;;15.48;61.53;96593.78;5116133;28;20096;-69
2022/07/21 01:16:08;;;;;;;2.70;1.75;;;;;;;15.44;61.41;96594.06;5116209;28;20043;-70
2022/07/21 01:18:37;;;;;;;1.65;1.48;;;;;;;15.38;61.79;96585.53;5115966;28;20051;-68
2022/07/21 01:21:19;;;;;;;1.65;1.55;;;;;;;15.38;62.01;96588.19;5116123;28;20126;-68
2022/07/21 01:23:46;;;;;;;1.90;1.50;;;;;;;15.31;62.14;96580.69;5116074;28;20084;-67
2022/07/21 01:26:14;;;;;;;3.75;1.70;;;;;;;15.28;62.27;96577.31;5115869;28;20134;-70
2022/07/21 01:28:41;;;;;;;3.03;1.67;;;;;;;15.27;62.44;96580.03;5115899;28;20504;-69
2022/07/21 01:31:08;;;;;;;1.90;1.70;;;;;;;15.20;62.58;96574.25;5115973;28;20123;-69
2022/07/21 01:33:35;;;;;;;3.80;1.60;;;;;;;15.18;62.53;96573.50;5115912;28;20075;-68
2022/07/21 01:36:02;;;;;;;3.38;1.83;;;;;;;15.12;62.74;96569.44;5115806;28;20409;-70
2022/07/21 01:41:30;;;;;;;2.35;1.80;;;;;;;15.07;63.19;96574.09;5115840;28;20405;-69
2022/07/21 01:43:58;;;;;;;1.73;1.63;;;;;;;14.99;63.10;96565.78;5115832;28;20116;-69
2022/07/21 01:46:26;;;;;;;2.90;1.60;;;;;;;14.96;63.22;96573.88;5115757;28;20044;-69
2022/07/21 01:48:53;;;;;;;3.25;1.50;;;;;;;14.94;63.55;96565.19;5115652;28;20051;-69
2022/07/21 01:51:20;;;;;;;1.90;1.60;;;;;;;14.86;63.95;96561.19;5115358;28;20043;-69
2022/07/21 01:53:49;;;;;;;2.17;1.70;;;;;;;14.81;63.93;96557.13;5115461;28;20043;-68
2022/07/21 01:56:19;;;;;;;3.20;1.80;;;;;;;14.77;64.20;96559.88;5115259;28;20470;-68
2022/07/21 01:58:46;;;;;;;2.85;1.73;;;;;;;14.77;64.17;96559.88;5115335;28;20101;-68
2022/07/21 02:01:13;;;;;;;2.17;1.60;;;;;;;14.78;64.15;96566.88;5114957;28;20047;-68
2022/07/21 02:03:40;;;;;;;3.10;2.10;;;;;;;14.76;64.31;96557.34;5115156;28;20047;-69
2022/07/21 02:06:08;;;;;;;2.63;1.90;;;;;;;14.73;64.32;96565.41;5114980;28;20047;-68
2022/07/21 02:08:35;;;;;;;3.95;1.98;;;;;;;14.74;64.26;96559.19;5114184;28;20047;-70
2022/07/21 02:11:04;;;;;;;3.67;2.08;;;;;;;14.70;64.37;96553.25;5115018;28;20488;-67
2022/07/21 02:13:32;;;;;;;4.10;2.00;;;;;;;14.66;64.65;96554.38;5115018;28;20428;-69
2022/07/21 02:15:59;;;;;;;2.75;1.95;;;;;;;14.62;64.41;96556.31;5114935;28;20142;-68
2022/07/21 02:18:26;;;;;;;2.33;1.98;;;;;;;14.64;64.86;96548.31;5114901;28;20087;-69
2022/07/21 02:20:54;;;;;;;4.68;1.85;;;;;;;14.61;64.91;96549.34;5114743;28;20079;-67
2022/07/21 02:23:22;;;;;;;2.63;1.70;;;;;;;14.55;64.94;96552.31;5114701;28;20485;-68
2022/07/21 02:25:49;;;;;;;3.28;1.83;;;;;;;14.49;64.87;96548.22;5114599;28;20078;-68
2022/07/21 02:28:17;;;;;;;4.25;1.60;;;;;;;14.48;65.30;96545.69;5114598;28;20048;-68
2022/07/21 02:30:45;;;;;;;3.25;1.70;;;;;;;14.48;65.08;96532.53;5114792;28;20040;-69
2022/07/21 02:33:12;;;;;;;4.20;1.80;;;;;;;14.48;65.01;96543.88;5114625;28;20047;-69
2022/07/21 02:35:40;;;;;;;2.60;2.40;;;;;;;14.50;65.16;96534.13;5114640;28;20051;-69
2022/07/21 02:38:08;;;;;;;5.10;1.90;;;;;;;14.53;65.13;96533.09;5114576;28;20055;-68
2022/07/21 02:40:35;;;;;;;3.33;1.95;;;;;;;14.52;65.02;96537.53;5114462;28;20086;-69
2022/07/21 02:43:03;;;;;;;4.45;1.83;;;;;;;14.50;65.44;96534.13;5114369;28;20640;-69
2022/07/21 02:45:32;;;;;;;2.38;1.95;;;;;;;14.49;65.50;96527.19;5114320;28;20056;-68
2022/07/21 02:48:02;;;;;;;4.40;2.25;;;;;;;14.44;65.32;96530.97;5114244;28;20056;-68
2022/07/21 02:50:31;;;;;;;2.58;1.80;;;;;;;14.46;65.49;96524.72;5114206;28;20069;-70
2022/07/21 02:52:59;;;;;;;3.38;1.95;;;;;;;14.38;65.42;96525.13;5114392;28;20043;-68
2022/07/21 02:55:28;;;;;;;3.33;1.92;;;;;;;14.26;66.01;96526.63;5114274;28;20040;-68
2022/07/21 02:58:05;;;;;;;4.63;2.00;;;;;;;14.27;66.18;96530.13;5114021;28;20104;-70
2022/07/21 03:00:34;;;;;;;2.55;1.95;;;;;;;14.27;66.28;96533.56;5113863;28;20560;-68
2022/07/21 03:03:01;;;;;;;2.40;1.90;;;;;;;14.25;66.49;96527.56;5114027;28;20489;-68
2022/07/21 03:05:28;;;;;;;5.60;2.03;;;;;;;14.20;66.41;96528.72;5114093;28;20054;-68
2022/07/21 03:07:57;;;;;;;3.08;1.70;;;;;;;14.24;66.67;96527.63;5113899;28;20051;-67
2022/07/21 03:10:24;;;;;;;2.67;1.90;;;;;;;14.26;66.56;96524.00;5113885;28;20051;-69
2022/07/21 03:12:51;;;;;;;2.38;2.10;;;;;;;14.32;66.31;96521.94;5113842;28;20126;-68
2022/07/21 03:15:18;;;;;;;2.17;1.90;;;;;;;14.26;66.58;96521.34;5113949;28;20481;-67
2022/07/21 03:17:47;;;;;;;5.00;1.80;;;;;;;14.18;66.92;96514.81;5113763;28;20478;-70
2022/07/21 03:20:14;;;;;;;2.30;2.00;;;;;;;14.20;67.08;96512.94;5113751;28;20044;-68
2022/07/21 03:22:41;;;;;;;3.40;2.10;;;;;;;14.26;67.11;96512.59;5113789;28;20043;-69
2022/07/21 03:25:09;;;;;;;2.35;1.92;;;;;;;14.30;67.08;96510.66;5113904;28;20405;-71
2022/07/21 03:27:37;;;;;;;6.55;1.92;;;;;;;14.35;66.89;96508.63;5113521;28;20044;-70
2022/07/21 03:30:07;;;;;;;4.53;1.92;;;;;;;14.40;67.14;96509.25;5113592;28;20044;-70
2022/07/21 03:32:34;;;;;;;6.63;2.17;;;;;;;14.38;66.88;96506.69;5113603;28;20044;-68
2022/07/21 03:35:03;;;;;;;5.82;2.30;;;;;;;14.40;66.78;96510.09;5113556;28;20066;-70
2022/07/21 03:37:31;;;;;;;3.00;2.08;;;;;;;14.44;67.10;96502.88;5113568;28;20554;-67
2022/07/21 03:39:58;;;;;;;5.00;2.38;;;;;;;14.45;67.11;96509.81;5113681;28;20056;-69
2022/07/21 03:42:25;;;;;;;2.95;1.77;;;;;;;14.50;67.45;96513.06;5113698;28;20070;-69
2022/07/21 03:44:52;;;;;;;3.47;2.38;;;;;;;14.55;67.53;96502.31;5113625;28;20055;-69
2022/07/21 03:47:19;;;;;;;2.60;2.15;;;;;;;14.67;67.36;96508.66;5113388;28;20132;-69
2022/07/21 03:49:46;;;;;;;3.10;1.80;;;;;;;14.85;67.00;96500.72;5113535;28;20051;-70
2022/07/21 03:52:15;;;;;;;3.72;1.95;;;;;;;15.15;66.60;96506.00;5113495;28;20047;-68
2022/07/21 03:54:42;;;;;;;4.50;2.05;;;;;;;15.57;65.53;96500.16;5113291;28;20048;-69
2022/07/21 03:57:09;;;;;;;3.03;2.15;;;;;;;16.08;64.11;96503.34;5113532;28;20047;-71
2022/07/21 03:59:36;;;;;;;3.88;1.88;;;;;;;16.58;62.81;96503.78;5113426;28;20047;-68
2022/07/21 04:02:03;;;;;;;2.63;1.88;;;;;;;17.12;61.35;96509.25;5113231;28;20051;-70
2022/07/21 04:04:30;;;;;;;2.75;1.92;;;;;;;17.63;59.97;96502.41;5113330;28;20135;-70
2022/07/21 04:06:58;;;;;;;5.07;2.05;;;;;;;18.10;58.64;96499.25;5113340;28;20043;-71
2022/07/21 04:09:26;;;;;;;2.30;1.80;;;;;;;18.61;57.55;96503.69;5113456;28;20058;-70
2022/07/21 04:11:53;;;;;;;8.18;2.75;;;;;;;19.09;56.53;96498.56;5113532;28;20451;-69
2022/07/21 04:14:20;;;;;;;1.92;1.50;;;;;;;19.53;55.63;96504.16;5113238;28;20052;-70
2022/07/21 04:16:48;;;;;;;3.63;1.73;;;;;;;19.99;54.70;96496.34;5113337;28;20089;-70
2022/07/21 04:19:15;;;;;;;13.82;2.58;;;;;;;20.43;53.54;96491.19;5113159;28;20044;-71
2022/07/21 04:21:42;;;;;;;12.10;2.20;;;;;;;20.86;52.72;96496.72;5113182;28;20039;-70
2022/07/21 04:24:09;;;;;;;7.50;1.80;;;;;;;21.31;51.76;96493.09;5113180;28;20123;-71
2022/07/21 04:26:38;;;;;;;12.27;2.47;;;;;;;21.74;51.09;96503.78;5113101;28;20040;-70
2022/07/21 04:29:05;;;;;;;6.60;2.22;;;;;;;22.18;50.10;96496.50;5113133;28;20108;-71
2022/07/21 04:31:32;;;;;;;5.25;1.92;;;;;;;22.68;49.20;96491.41;5114722;28;20044;-70
2022/07/21 04:33:59;;;;;;;3.88;1.70;;;;;;;23.12;47.69;96493.75;5117019;28;20105;-70
2022/07/21 04:36:26;;;;;;;5.30;2.08;;;;;;;23.53;47.57;96490.97;5116895;28;20043;-69
2022/07/21 04:38:54;;;;;;;5.63;1.77;;;;;;;23.95;47.17;96492.47;5116800;28;20552;-69
2022/07/21 04:41:21;;;;;;;2.60;1.85;;;;;;;24.26;46.22;96485.25;5116795;28;20052;-70
2022/07/21 04:43:49;;;;;;;3.83;1.55;;;;;;;24.69;46.06;96488.31;5116683;28;20048;-70
2022/07/21 04:46:16;;;;;;;15.82;2.35;;;;;;;25.12;44.17;96488.63;5116802;28;20051;-69
2022/07/21 04:48:43;;;;;;;6.85;1.80;;;;;;;25.53;43.07;96484.66;5116657;28;20047;-69
2022/07/21 04:51:11;;;;;;;2.22;1.48;;;;;;;25.93;40.74;96487.84;5116615;28;20048;-69
2022/07/21 04:53:38;;;;;;;6.10;2.22;;;;;;;26.34;41.08;96495.34;5116679;28;20077;-70
2022/07/21 04:56:05;;;;;;;2.83;1.70;;;;;;;26.81;42.11;96490.47;5116473;28;20047;-70
2022/07/21 04:58:33;;;;;;;3.72;1.48;;;;;;;27.12;40.72;96492.63;5116449;28;20054;-70
2022/07/21 05:01:01;;;;;;;3.92;1.77;;;;;;;27.39;39.97;96496.00;5116318;28;20590;-69
2022/07/21 05:03:28;;;;;;;1.75;1.30;;;;;;;27.62;40.95;96498.91;5116462;28;20481;-69
2022/07/21 05:05:55;;;;;;;2.78;1.77;;;;;;;27.93;39.11;96497.41;5116431;28;20052;-70
2022/07/21 05:08:22;;;;;;;2.22;1.52;;;;;;;28.41;35.50;96490.47;5116220;28;20052;-70
2022/07/21 05:10:50;;;;;;;5.05;1.60;;;;;;;28.81;33.82;96495.84;5116261;28;20051;-69
2022/07/21 05:13:17;;;;;;;4.60;1.67;;;;;;;29.09;33.66;96498.94;5116266;28;20105;-69
2022/07/21 05:15:45;;;;;;;4.50;1.52;;;;;;;29.43;31.42;96493.34;5116166;28;20040;-70
2022/07/21 05:18:13;;;;;;;5.68;1.80;;;;;;;29.81;35.48;96498.78;5116129;28;20459;-69
2022/07/21 05:20:40;;;;;;;3.17;1.50;;;;;;;30.15;30.16;96499.31;5115933;28;20477;-69
2022/07/21 05:23:08;;;;;;;5.13;1.30;;;;;;;30.48;29.95;96504.38;5116019;28;20043;-69
2022/07/21 05:25:37;;;;;;;7.15;2.08;;;;;;;30.84;28.21;96499.25;5116121;28;20048;-69
2022/07/21 05:28:06;;;;;;;4.90;1.50;;;;;;;31.13;26.98;96505.66;5115800;28;20451;-69
2022/07/21 05:30:33;;;;;;;4.57;1.60;;;;;;;31.47;26.88;96506.03;5116008;28;20489;-70
2022/07/21 05:33:00;;;;;;;2.35;1.60;;;;;;;31.61;27.82;96515.09;5115905;28;20100;-69
2022/07/21 05:35:29;;;;;;;3.47;1.48;;;;;;;31.97;27.38;96507.97;5115664;28;20401;-69
2022/07/21 05:37:57;;;;;;;2.22;1.52;;;;;;;31.95;24.56;96510.84;5115653;28;20060;-69
2022/07/21 05:40:24;;;;;;;4.45;1.63;;;;;;;31.85;24.45;96519.28;5115639;28;20048;-69
2022/07/21 05:42:51;;;;;;;5.43;1.60;;;;;;;32.22;26.24;96515.63;5114379;28;20079;-69
2022/07/21 05:45:19;;;;;;;6.93;1.70;;;;;;;32.53;24.31;96520.66;5115596;28;20485;-69
2022/07/21 05:47:46;;;;;;;5.55;1.65;;;;;;;32.71;24.94;96511.16;5115355;28;20044;-69
2022/07/21 05:50:14;;;;;;;3.28;1.60;;;;;;;32.97;23.85;96506.91;5115453;28;20493;-69
2022/07/21 05:52:42;;;;;;;5.68;1.73;;;;;;;33.17;22.67;96511.59;5115581;28;20074;-69
2022/07/21 05:55:10;;;;;;;5.00;1.77;;;;;;;33.31;22.88;96501.63;5115478;28;20119;-69
2022/07/21 05:57:38;;;;;;;2.17;1.35;;;;;;;33.60;23.02;96507.75;5115411;28;20477;-69
2022/07/21 06:00:06;;;;;;;4.93;2.13;;;;;;;33.75;22.04;96507.56;5115107;28;20100;-69
2022/07/21 06:02:34;;;;;;;3.42;1.92;;;;;;;33.90;22.93;96501.94;5115357;28;20120;-69
2022/07/21 06:05:01;;;;;;;5.22;1.52;;;;;;;34.00;22.32;96508.81;5115229;28;20101;-69
2022/07/21 06:07:28;;;;;;;2.00;1.50;;;;;;;33.97;22.60;96506.50;5115246;28;20667;-69
2022/07/21 06:09:59;;;;;;;5.95;1.40;;;;;;;34.18;22.48;96501.94;5114997;28;20047;-69
2022/07/21 06:12:26;;;;;;;5.28;1.95;;;;;;;34.16;21.71;96502.16;5114960;28;20130;-69
2022/07/21 06:14:55;;;;;;;1.63;1.33;;;;;;;34.09;22.09;96504.84;5115086;28;20044;-69
2022/07/21 06:17:22;;;;;;;3.00;1.48;;;;;;;34.21;22.10;96499.63;5114831;28;20489;-69
2022/07/21 06:19:50;;;;;;;5.57;1.50;;;;;;;34.31;22.95;96499.19;5114836;28;20127;-68
2022/07/21 06:22:17;;;;;;;2.30;1.30;;;;;;;34.20;21.96;96492.56;5114774;28;20047;-68
2022/07/21 06:24:44;;;;;;;4.68;1.33;;;;;;;34.08;21.82;96500.47;5114729;28;20082;-69
2022/07/21 06:27:13;;;;;;;1.63;1.35;;;;;;;34.16;21.97;96499.47;5114719;28;20112;-68
2022/07/21 06:29:40;;;;;;;2.03;1.40;;;;;;;34.22;22.33;96501.28;5114668;28;20048;-69
2022/07/21 06:32:07;;;;;;;2.08;1.60;;;;;;;34.44;22.54;96495.63;5114753;28;20044;-68
2022/07/21 06:34:35;;;;;;;1.45;1.35;;;;;;;34.57;21.77;96504.78;5114630;28;20112;-68
2022/07/21 06:37:02;;;;;;;4.95;1.73;;;;;;;34.79;21.60;96500.78;5114483;28;20109;-68
2022/07/21 06:39:29;;;;;;;3.05;1.50;;;;;;;35.02;21.70;96498.59;5114608;28;20048;-69
2022/07/21 06:41:57;;;;;;;2.33;1.65;;;;;;;35.16;21.41;96485.78;5114424;28;20093;-69
2022/07/21 06:44:25;;;;;;;2.75;1.67;;;;;;;35.08;21.02;96495.00;5114362;28;20058;-68
2022/07/21 06:46:54;;;;;;;4.72;1.60;;;;;;;35.26;21.21;96488.06;5114252;28;20465;-68
2022/07/21 06:49:21;;;;;;;2.63;1.70;;;;;;;35.41;21.06;96490.47;5114201;28;20582;-68
2022/07/21 06:51:48;;;;;;;3.08;2.03;;;;;;;35.74;21.21;96484.00;5114318;28;20100;-68
2022/07/21 06:54:15;;;;;;;2.60;1.50;;;;;;;35.79;20.94;96494.22;5113800;28;20048;-68
2022/07/21 06:56:42;;;;;;;2.67;1.45;;;;;;;35.67;20.45;96485.91;5114370;28;20409;-68
2022/07/21 06:59:10;;;;;;;3.25;1.35;;;;;;;35.76;19.95;96492.75;5114092;28;20504;-68
2022/07/21 07:01:38;;;;;;;3.65;1.73;;;;;;;35.81;20.75;96488.56;5113777;28;20051;-68
2022/07/21 07:04:05;;;;;;;3.67;1.67;;;;;;;35.81;20.72;96494.00;5114008;28;20043;-68
2022/07/21 07:06:32;;;;;;;2.15;1.50;;;;;;;35.64;21.25;96492.59;5113953;28;20047;-68
2022/07/21 07:08:59;;;;;;;5.00;1.52;;;;;;;35.93;21.39;96497.63;5114038;28;20048;-68
2022/07/21 07:11:27;;;;;;;2.78;1.50;;;;;;;35.34;21.50;96484.25;5113996;28;20044;-68
2022/07/21 07:13:54;;;;;;;2.53;1.50;;;;;;;35.40;21.82;96476.03;5113924;28;20046;-68
2022/07/21 07:16:21;;;;;;;5.05;1.60;;;;;;;35.52;21.66;96486.22;5113986;28;20059;-68
2022/07/21 07:18:49;;;;;;;5.07;1.90;;;;;;;35.66;20.55;96481.50;5113715;28;20128;-68
2022/07/21 07:21:17;;;;;;;4.15;1.80;;;;;;;35.69;20.75;96483.81;5113860;28;20048;-68
2022/07/21 07:23:44;;;;;;;5.28;1.48;;;;;;;35.96;20.83;96491.75;5113967;28;20113;-68
2022/07/21 07:26:11;;;;;;;3.30;1.55;;;;;;;36.12;20.43;96487.63;5113855;28;20047;-68
2022/07/21 07:28:38;;;;;;;3.10;1.50;;;;;;;36.28;20.87;96485.44;5113773;28;20105;-68
2022/07/21 07:31:05;;;;;;;3.13;1.73;;;;;;;36.19;20.58;96492.19;5113776;28;20080;-68
2022/07/21 07:33:32;;;;;;;2.28;1.60;;;;;;;35.96;19.94;96499.09;5113641;28;20044;-68
2022/07/21 07:36:01;;;;;;;5.68;2.00;;;;;;;35.46;22.01;96492.53;5113622;28;20131;-69
2022/07/21 07:38:29;;;;;;;3.22;2.03;;;;;;;35.06;22.59;96490.84;5113699;28;20501;-68
2022/07/21 07:40:56;;;;;;;1.65;1.52;;;;;;;34.69;21.64;96491.41;5113531;28;20086;-68
2022/07/21 07:43:23;;;;;;;5.25;1.75;;;;;;;34.18;22.71;96483.78;5113561;28;20430;-68
2022/07/21 07:45:50;;;;;;;5.20;2.10;;;;;;;34.20;23.03;96479.00;5113437;28;20070;-68
2022/07/21 07:48:18;;;;;;;4.38;1.80;;;;;;;34.60;22.47;96482.63;5113565;28;20122;-67
2022/07/21 07:50:45;;;;;;;4.13;2.17;;;;;;;34.55;21.52;96480.56;5113635;28;20044;-68
2022/07/21 07:53:15;;;;;;;5.03;2.05;;;;;;;34.64;22.72;96486.63;5113430;28;20123;-68
2022/07/21 07:55:42;;;;;;;4.70;2.08;;;;;;;34.98;21.67;96483.78;5113444;28;20054;-68
2022/07/21 07:58:10;;;;;;;9.52;2.10;;;;;;;35.46;21.96;96487.09;5113410;28;20048;-68
2022/07/21 08:00:37;;;;;;;9.52;2.20;;;;;;;35.42;21.58;96478.53;5113213;28;20413;-68
2022/07/21 08:03:05;;;;;;;4.18;2.40;;;;;;;35.76;21.18;96481.88;5113560;28;20548;-68
2022/07/21 08:05:32;;;;;;;7.70;2.28;;;;;;;35.89;22.22;96489.09;5113433;28;20076;-67
2022/07/21 08:07:59;;;;;;;7.97;1.98;;;;;;;36.10;21.37;96480.75;5117432;28;20067;-67
2022/07/21 08:10:29;;;;;;;6.25;2.03;;;;;;;36.14;21.86;96477.38;5117288;28;20132;-67
2022/07/21 08:12:57;;;;;;;5.35;2.33;;;;;;;36.28;20.83;96477.28;5117382;28;20077;-67
2022/07/21 08:15:25;;;;;;;5.57;2.03;;;;;;;36.27;19.83;96476.44;5117370;28;20092;-67
2022/07/21 08:17:53;;;;;;;5.75;2.08;;;;;;;35.78;20.63;96477.06;5117235;28;20051;-67
2022/07/21 08:20:20;;;;;;;3.05;2.10;;;;;;;35.67;21.18;96472.31;5117364;28;20058;-67
2022/07/21 08:22:48;;;;;;;6.50;1.90;;;;;;;35.65;21.68;96471.69;5117260;28;20047;-67
2022/07/21 08:25:16;;;;;;;3.33;2.40;;;;;;;35.83;20.89;96472.84;5117250;28;20043;-67
2022/07/21 08:27:45;;;;;;;5.45;1.85;;;;;;;36.06;20.97;96472.22;5117166;28;20481;-67
2022/07/21 08:30:14;;;;;;;2.33;2.00;;;;;;;36.34;21.10;96470.09;5116988;28;20055;-67
2022/07/21 08:32:41;;;;;;;4.80;2.10;;;;;;;36.41;20.41;96474.41;5116897;28;20058;-69
2022/07/21 08:35:09;;;;;;;8.75;2.00;;;;;;;36.23;19.89;96460.81;5116903;28;20550;-69
2022/07/21 08:37:36;;;;;;;3.35;1.75;;;;;;;35.88;21.93;96459.41;5116842;28;20048;-68
2022/07/21 08:40:04;;;;;;;4.70;1.90;;;;;;;35.92;20.19;96479.66;5116759;28;20044;-69
2022/07/21 08:42:32;;;;;;;3.33;1.55;;;;;;;35.70;20.76;96471.91;5116777;28;20044;-69
2022/07/21 08:45:01;;;;;;;5.90;1.95;;;;;;;35.65;21.70;96469.81;5116770;28;20043;-69
2022/07/21 08:47:28;;;;;;;3.95;2.35;;;;;;;35.29;21.17;96464.00;5116782;28;20060;-69
2022/07/21 08:49:56;;;;;;;6.10;1.90;;;;;;;35.33;21.31;96455.41;5116497;28;20093;-69
2022/07/21 08:52:23;;;;;;;4.25;2.05;;;;;;;35.28;21.38;96454.16;5116769;28;20052;-69
2022/07/21 08:54:50;;;;;;;2.70;1.92;;;;;;;35.19;21.28;96457.38;5116718;28;20050;-69
2022/07/21 08:57:18;;;;;;;3.40;2.40;;;;;;;34.81;21.62;96454.41;5116391;28;20044;-69
2022/07/21 08:59:45;;;;;;;2.78;1.95;;;;;;;34.33;22.92;96456.41;5116419;28;20143;-69
2022/07/21 09:02:28;;;;;;;4.55;2.00;;;;;;;34.03;22.23;96446.00;5116167;28;20092;-69
2022/07/21 09:04:57;;;;;;;2.75;2.08;;;;;;;33.92;23.90;96450.22;5116148;28;20055;-69
2022/07/21 09:07:24;;;;;;;7.00;1.80;;;;;;;34.22;23.34;96457.88;5116273;28;20047;-69
2022/07/21 09:09:59;;;;;;;5.18;2.03;;;;;;;34.75;21.67;96453.38;5116204;28;20111;-69
2022/07/21 09:12:28;;;;;;;7.90;1.98;;;;;;;34.97;22.50;96460.41;5116172;28;20058;-69
2022/07/21 09:15:14;;;;;;;3.80;2.20;;;;;;;35.25;22.11;96443.75;5116215;28;20047;-69
2022/07/21 09:17:42;;;;;;;2.33;1.80;;;;;;;35.46;22.08;96449.88;5115691;28;20436;-70
2022/07/21 09:20:23;;;;;;;7.63;2.33;;;;;;;35.73;21.76;96440.72;5116131;28;20039;-69
2022/07/21 09:23:03;;;;;;;2.88;1.90;;;;;;;35.94;21.55;96446.81;5116186;28;20048;-69
2022/07/21 09:25:35;;;;;;;5.63;2.55;;;;;;;35.77;20.63;96445.50;5116011;28;20055;-69
2022/07/21 09:28:14;;;;;;;3.53;2.20;;;;;;;35.42;20.92;96445.91;5115925;28;20055;-69
2022/07/21 09:30:53;;;;;;;2.90;1.95;;;;;;;35.48;21.06;96445.03;5115917;28;20054;-69
2022/07/21 09:33:25;;;;;;;6.33;2.07;;;;;;;35.65;20.38;96444.50;5115831;28;20044;-69
2022/07/21 09:35:56;;;;;;;5.97;2.58;;;;;;;35.43;21.85;96439.44;5115802;28;20043;-69
2022/07/21 09:38:24;;;;;;;6.47;1.92;;;;;;;35.34;21.72;96438.03;5115743;28;20377;-69
2022/07/21 09:40:51;;;;;;;5.70;1.98;;;;;;;34.96;21.65;96431.53;5115641;28;20055;-69
2022/07/21 09:43:36;;;;;;;3.58;1.80;;;;;;;34.60;22.22;96440.03;5115606;28;20054;-69
2022/07/21 09:46:05;;;;;;;6.70;2.10;;;;;;;34.82;22.06;96430.81;5114302;28;20054;-69
2022/07/21 09:48:38;;;;;;;4.35;1.90;;;;;;;35.00;21.52;96440.94;5115502;28;20104;-69
2022/07/21 09:51:37;;;;;;;4.43;2.22;;;;;;;35.06;20.64;96442.78;5115440;28;20139;-69
2022/07/21 09:54:06;;;;;;;11.15;2.33;;;;;;;35.12;21.66;96433.75;5032864;28;20050;-69
2022/07/21 09:56:35;;;;;;;7.57;2.05;;;;;;;35.36;20.77;96446.81;5098834;28;20074;-71
2022/07/21 09:59:04;;;;;;;5.00;2.20;;;;;;;35.44;20.08;96440.25;5115258;28;20051;-69
2022/07/21 10:01:32;;;;;;;5.60;1.90;;;;;;;35.34;20.98;96435.31;5115003;28;20039;-70
2022/07/21 10:04:01;;;;;;;2.25;1.90;;;;;;;35.23;20.99;96439.56;5115409;28;20047;-69
2022/07/21 10:06:31;;;;;;;4.18;2.00;;;;;;;35.17;21.25;96435.81;5115272;28;20047;-69
2022/07/21 10:08:59;;;;;;;3.50;2.17;;;;;;;35.29;20.61;96438.69;5115231;28;20417;-69
2022/07/21 10:11:28;;;;;;;3.38;2.17;;;;;;;35.18;21.20;96425.81;5115077;28;20040;-69
2022/07/21 10:13:55;;;;;;;5.78;2.45;;;;;;;35.26;22.34;96431.81;5115175;28;20164;-69
2022/07/21 10:16:25;;;;;;;2.58;2.10;;;;;;;35.37;21.68;96429.47;5115082;28;20439;-69
2022/07/21 10:19:07;;;;;;;4.47;2.05;;;;;;;35.31;21.03;96442.03;5114490;28;20390;-69
2022/07/21 10:21:42;;;;;;;5.80;2.25;;;;;;;35.47;20.29;96435.22;5114811;28;20051;-69
2022/07/21 10:24:12;;;;;;;3.90;2.20;;;;;;;35.40;20.50;96415.44;5114946;28;20109;-69
2022/07/21 10:26:39;;;;;;;3.10;2.08;;;;;;;35.52;20.25;96416.34;5114809;28;20132;-69
2022/07/21 10:29:07;;;;;;;5.18;2.50;;;;;;;35.59;20.07;96415.47;5114024;28;20047;-69
2022/07/21 10:31:43;;;;;;;3.75;2.10;;;;;;;35.77;19.59;96418.28;5114626;28;20481;-69
2022/07/21 10:34:12;;;;;;;3.35;2.60;;;;;;;35.87;20.13;96414.22;5114786;28;20451;-69
2022/07/21 10:36:41;;;;;;;3.38;1.92;;;;;;;35.95;20.04;96419.38;5114502;28;20489;-69
2022/07/21 10:39:32;;;;;;;2.20;2.00;;;;;;;35.61;19.50;96406.06;5114599;28;20088;-69
2022/07/21 10:42:02;;;;;;;4.47;2.20;;;;;;;35.37;20.56;96407.72;5109710;28;20292;-70
2022/07/21 10:44:47;;;;;;;4.22;2.35;;;;;;;35.59;20.23;96407.31;5114412;28;20564;-69
2022/07/21 10:47:18;;;;;;;6.10;2.00;;;;;;;35.60;20.74;96406.28;5114412;28;20047;-69
2022/07/21 10:49:59;;;;;;;3.72;2.08;;;;;;;35.08;20.67;96393.66;5114117;28;20543;-69
2022/07/21 10:53:03;;;;;;;3.15;2.30;;;;;;;34.74;21.03;96388.44;5114299;28;20077;-69
2022/07/21 10:55:33;;;;;;;4.75;1.80;;;;;;;34.79;21.22;96383.16;5072046;28;20493;-69
2022/07/21 10:58:18;;;;;;;2.80;2.50;;;;;;;34.94;21.12;96393.75;5113280;28;20100;-69
2022/07/21 11:00:47;;;;;;;4.22;2.03;;;;;;;35.12;20.14;96384.84;5113845;28;20083;-69
2022/07/21 11:03:17;;;;;;;7.07;2.13;;;;;;;35.15;20.93;96398.00;5114037;28;20086;-69
2022/07/21 11:06:18;;;;;;;2.17;1.90;;;;;;;35.21;20.27;96387.34;5114109;28;20051;-69
2022/07/21 11:08:47;;;;;;;3.80;1.75;;;;;;;35.41;20.33;96384.47;5114104;28;20404;-69
2022/07/21 11:11:16;;;;;;;3.92;1.90;;;;;;;35.58;20.20;96382.03;5113908;28;20066;-69
2022/07/21 11:14:07;;;;;;;6.25;1.90;;;;;;;35.81;19.62;96390.66;5113954;28;20043;-69
2022/07/21 11:17:02;;;;;;;3.63;2.00;;;;;;;35.84;19.59;96390.22;5114182;28;20047;-69
2022/07/21 11:19:31;;;;;;;4.07;2.00;;;;;;;35.82;19.53;96384.16;5114276;28;20047;-69
2022/07/21 11:22:03;;;;;;;5.53;2.40;;;;;;;35.70;18.33;96382.19;5114177;28;20083;-69
2022/07/21 11:24:30;;;;;;;2.90;1.90;;;;;;;35.56;19.19;96383.28;5114125;28;20093;-69
2022/07/21 11:26:59;;;;;;;5.35;1.90;;;;;;;35.74;19.85;96382.53;5113940;28;20047;-69
2022/07/21 11:29:27;;;;;;;9.97;2.30;;;;;;;35.83;18.80;96383.09;5113771;28;20105;-69
2022/07/21 11:31:55;;;;;;;7.13;2.05;;;;;;;35.58;20.13;96381.19;5113909;28;20108;-69
2022/07/21 11:34:22;;;;;;;2.28;1.90;;;;;;;35.48;18.85;96376.28;5113727;28;20477;-69
2022/07/21 11:36:58;;;;;;;4.90;2.00;;;;;;;35.28;19.54;96366.41;5113772;28;20436;-69
2022/07/21 11:39:27;;;;;;;3.75;1.88;;;;;;;35.40;20.61;96371.94;5113588;28;20044;-69
2022/07/21 11:41:54;;;;;;;6.05;2.10;;;;;;;35.31;19.93;96376.81;5113598;28;20075;-69
2022/07/21 11:44:26;;;;;;;4.85;1.90;;;;;;;35.31;20.42;96365.09;5113631;28;20043;-69
2022/07/21 11:46:58;;;;;;;5.32;2.00;;;;;;;35.32;20.26;96369.47;5113531;28;20431;-69